createdAt,value
2023-05-10T00:02:09.611Z,2.83
2023-05-10T00:04:55.004Z,2.80
2023-05-10T00:07:40.508Z,2.83
2023-05-10T00:10:25.780Z,3.42
2023-05-10T00:13:11.131Z,2.97
2023-05-10T00:15:56.731Z,3.50
2023-05-10T00:18:42.306Z,3.95
2023-05-10T00:21:29.259Z,3.78
2023-05-10T00:24:14.842Z,3.70
2023-05-10T00:27:01.682Z,3.63
2023-05-10T00:29:47.407Z,4.05
2023-05-10T00:32:33.059Z,4.28
2023-05-10T00:35:18.620Z,4.57
2023-05-10T00:38:04.066Z,4.20
2023-05-10T00:40:49.595Z,4.47
2023-05-10T00:43:35.251Z,4.78
2023-05-10T00:46:21.581Z,5.45
2023-05-10T00:49:07.411Z,4.75
2023-05-10T00:51:52.942Z,4.57
2023-05-10T00:54:38.614Z,5.70
2023-05-10T00:57:24.075Z,4.97
2023-05-10T01:00:10.767Z,5.30
2023-05-10T01:02:56.189Z,6.03
2023-05-10T01:05:42.064Z,5.18
2023-05-10T01:08:27.796Z,5.07
2023-05-10T01:11:13.789Z,6.15
2023-05-10T01:13:59.540Z,6.57
2023-05-10T01:16:46.618Z,6.03
2023-05-10T01:19:35.924Z,5.97
2023-05-10T01:22:24.244Z,6.05
2023-05-10T01:25:18.095Z,5.57
2023-05-10T01:28:28.037Z,5.90
2023-05-10T01:31:32.557Z,6.95
2023-05-10T01:34:33.244Z,5.75
2023-05-10T01:37:26.214Z,6.07
2023-05-10T01:40:37.402Z,5.63
2023-05-10T01:43:29.678Z,6.40
2023-05-10T01:46:25.644Z,6.50
2023-05-10T01:49:20.696Z,5.70
2023-05-10T01:52:12.955Z,5.93
2023-05-10T01:55:08.062Z,6.47
2023-05-10T01:58:22.472Z,6.25
2023-05-10T02:01:09.456Z,5.50
2023-05-10T02:03:56.617Z,6.25
2023-05-10T02:06:44.501Z,5.22
2023-05-10T02:09:31.731Z,5.22
2023-05-10T02:12:18.992Z,6.10
2023-05-10T02:15:07.037Z,6.13
2023-05-10T02:17:53.571Z,5.50
2023-05-10T02:20:40.488Z,5.90
2023-05-10T02:23:27.339Z,5.22
2023-05-10T02:26:14.917Z,5.53
2023-05-10T02:29:04.427Z,4.85
2023-05-10T02:31:53.653Z,5.95
2023-05-10T02:34:40.784Z,5.72
2023-05-10T02:37:28.107Z,5.40
2023-05-10T02:40:15.894Z,5.78
2023-05-10T02:43:03.618Z,6.55
2023-05-10T02:45:49.689Z,6.20
2023-05-10T02:48:35.345Z,6.18
2023-05-10T02:51:25.713Z,6.45
2023-05-10T02:54:16.558Z,5.38
2023-05-10T02:57:05.511Z,5.95
2023-05-10T02:59:50.951Z,6.80
2023-05-10T03:02:37.351Z,6.65
2023-05-10T03:05:23.301Z,6.30
2023-05-10T03:08:09.312Z,6.75
2023-05-10T03:11:39.519Z,7.68
2023-05-10T03:14:27.983Z,6.45
2023-05-10T03:17:35.791Z,6.85
2023-05-10T03:20:38.077Z,7.32
2023-05-10T03:23:40.146Z,6.97
2023-05-10T03:26:27.552Z,6.45
2023-05-10T03:29:15.320Z,7.65
2023-05-10T03:32:01.265Z,7.32
2023-05-10T03:34:46.577Z,8.18
2023-05-10T03:37:31.939Z,8.02
2023-05-10T03:40:18.013Z,7.78
2023-05-10T03:43:03.851Z,8.05
2023-05-10T03:45:49.587Z,7.90
2023-05-10T03:48:34.991Z,8.13
2023-05-10T03:51:20.624Z,8.55
2023-05-10T03:54:06.151Z,8.25
2023-05-10T03:56:51.593Z,8.82
2023-05-10T03:59:37.270Z,8.07
2023-05-10T04:02:22.733Z,8.48
2023-05-10T04:05:08.632Z,8.73
2023-05-10T04:07:54.008Z,9.60
2023-05-10T04:10:39.499Z,8.25
2023-05-10T04:13:25.133Z,9.43
2023-05-10T04:16:10.599Z,9.02
2023-05-10T04:18:56.116Z,9.90
2023-05-10T04:21:41.517Z,8.82
2023-05-10T04:28:19.097Z,8.68
2023-05-10T04:31:05.886Z,8.63
2023-05-10T04:33:51.512Z,9.68
2023-05-10T04:36:37.652Z,10.32
2023-05-10T04:39:22.715Z,11.00
2023-05-10T04:42:08.273Z,9.88
2023-05-10T04:44:53.626Z,10.90
2023-05-10T04:47:38.994Z,10.23
2023-05-10T04:50:24.696Z,9.68
2023-05-10T04:53:10.006Z,9.02
2023-05-10T04:55:55.705Z,10.25
2023-05-10T04:58:41.396Z,10.07
2023-05-10T05:01:26.649Z,10.70
2023-05-10T05:04:12.539Z,10.40
2023-05-10T05:06:58.100Z,10.93
2023-05-10T05:09:43.574Z,9.98
2023-05-10T05:12:29.367Z,10.48
2023-05-10T05:15:16.351Z,11.27
2023-05-10T05:18:02.194Z,11.40
2023-05-10T05:20:47.842Z,11.73
2023-05-10T05:23:33.433Z,9.95
2023-05-10T05:26:19.211Z,10.68
2023-05-10T05:29:04.645Z,11.30
2023-05-10T05:31:50.251Z,11.75
2023-05-10T05:34:35.979Z,12.45
2023-05-10T05:37:22.517Z,13.65
2023-05-10T05:40:08.696Z,12.55
2023-05-10T05:42:53.905Z,13.75
2023-05-10T05:45:39.394Z,14.52
2023-05-10T05:48:25.120Z,13.70
2023-05-10T05:51:10.476Z,14.18
2023-05-10T05:53:56.625Z,13.10
2023-05-10T05:56:42.152Z,12.45
2023-05-10T05:59:28.583Z,11.88
2023-05-10T06:02:13.989Z,12.20
2023-05-10T06:04:59.805Z,10.25
2023-05-10T06:07:45.357Z,10.10
2023-05-10T06:10:31.582Z,9.63
2023-05-10T06:13:16.834Z,8.85
2023-05-10T06:16:04.051Z,9.45
2023-05-10T06:18:49.394Z,9.43
2023-05-10T06:21:34.871Z,8.38
2023-05-10T06:24:20.925Z,9.73
2023-05-10T06:27:07.241Z,8.85
2023-05-10T06:30:02.210Z,7.50
2023-05-10T06:32:55.358Z,8.25
2023-05-10T06:35:41.009Z,9.02
2023-05-10T06:38:26.817Z,7.72
2023-05-10T06:41:12.631Z,8.45
2023-05-10T06:43:58.066Z,8.07
2023-05-10T06:46:43.605Z,7.63
2023-05-10T06:49:29.393Z,7.45
2023-05-10T06:52:15.040Z,7.63
2023-05-10T06:55:01.266Z,7.10
2023-05-10T06:57:47.187Z,7.07
2023-05-10T07:00:32.689Z,6.55
2023-05-10T07:03:18.341Z,6.88
2023-05-10T07:06:05.009Z,6.38
2023-05-10T07:08:50.423Z,6.75
2023-05-10T07:11:36.449Z,5.88
2023-05-10T07:14:22.200Z,6.47
2023-05-10T07:17:07.615Z,5.57
2023-05-10T07:19:53.455Z,5.93
2023-05-10T07:22:38.719Z,5.07
2023-05-10T07:25:24.234Z,4.82
2023-05-10T07:28:09.808Z,5.10
2023-05-10T07:30:55.246Z,5.13
2023-05-10T07:33:41.321Z,4.57
2023-05-10T07:36:27.337Z,5.72
2023-05-10T07:39:16.442Z,4.40
2023-05-10T07:42:09.930Z,4.53
2023-05-10T07:44:55.991Z,4.10
2023-05-10T07:47:41.726Z,3.75
2023-05-10T07:50:27.911Z,4.50
2023-05-10T07:53:13.379Z,4.25
2023-05-10T07:55:59.800Z,4.75
2023-05-10T07:58:45.357Z,4.10
2023-05-10T08:01:35.422Z,4.65
2023-05-10T08:04:20.935Z,4.30
2023-05-10T08:07:06.597Z,3.63
2023-05-10T08:09:52.179Z,4.10
2023-05-10T08:12:39.029Z,3.55
2023-05-10T08:15:24.794Z,4.05
2023-05-10T08:18:10.466Z,3.60
2023-05-10T08:20:56.205Z,3.78
2023-05-10T08:23:41.807Z,4.15
2023-05-10T08:26:27.456Z,3.55
2023-05-10T08:29:12.934Z,4.18
2023-05-10T08:31:58.628Z,3.88
2023-05-10T08:34:44.255Z,4.90
2023-05-10T08:37:31.396Z,3.35
2023-05-10T08:40:17.153Z,3.65
2023-05-10T08:43:08.513Z,3.28
2023-05-10T08:45:55.169Z,3.53
2023-05-10T08:48:41.204Z,3.25
2023-05-10T08:51:28.143Z,3.35
2023-05-10T08:54:13.880Z,3.78
2023-05-10T08:56:59.828Z,3.97
2023-05-10T08:59:45.222Z,3.53
2023-05-10T09:02:31.200Z,3.47
2023-05-10T09:05:17.411Z,4.18
2023-05-10T09:08:04.577Z,3.72
2023-05-10T09:10:50.385Z,4.13
2023-05-10T09:13:37.055Z,4.55
2023-05-10T09:16:23.096Z,5.03
2023-05-10T09:19:09.723Z,4.63
2023-05-10T09:21:56.162Z,4.30
2023-05-10T09:24:46.207Z,4.13
2023-05-10T09:27:31.955Z,4.70
2023-05-10T09:30:32.200Z,3.97
2023-05-10T09:33:19.319Z,4.10
2023-05-10T09:36:10.084Z,4.22
2023-05-10T09:38:55.739Z,4.32
2023-05-10T09:41:43.722Z,4.40
2023-05-10T09:44:29.783Z,4.18
2023-05-10T09:47:20.112Z,3.72
2023-05-10T09:50:06.136Z,3.53
2023-05-10T09:53:04.150Z,4.00
2023-05-10T09:55:51.552Z,3.67
2023-05-10T09:58:39.119Z,3.75
2023-05-10T10:01:27.634Z,3.58
2023-05-10T10:04:13.725Z,4.95
2023-05-10T10:07:06.176Z,3.75
2023-05-10T10:09:51.712Z,3.88
2023-05-10T10:12:40.262Z,4.43
2023-05-10T10:15:26.559Z,3.75
2023-05-10T10:18:16.695Z,4.88
2023-05-10T10:21:03.066Z,3.90
2023-05-10T10:23:48.737Z,4.35
2023-05-10T10:26:37.359Z,4.00
2023-05-10T10:29:52.421Z,3.78
2023-05-10T10:33:20.630Z,3.80
2023-05-10T10:36:14.092Z,4.20
2023-05-10T10:39:01.575Z,3.72
2023-05-10T10:41:55.844Z,3.35
2023-05-10T10:44:42.859Z,3.70
2023-05-10T10:47:33.917Z,3.92
2023-05-10T10:50:19.799Z,3.83
2023-05-10T10:53:12.127Z,3.47
2023-05-10T10:56:08.698Z,3.47
2023-05-10T10:58:54.660Z,3.38
2023-05-10T11:01:45.510Z,3.65
2023-05-10T11:04:44.273Z,4.07
2023-05-10T11:07:29.790Z,3.55
2023-05-10T11:10:21.515Z,3.25
2023-05-10T11:13:07.809Z,2.83
2023-05-10T11:15:54.448Z,3.60
2023-05-10T11:18:40.113Z,3.28
2023-05-10T11:21:25.830Z,3.33
2023-05-10T11:24:16.805Z,3.10
2023-05-10T11:27:02.649Z,3.55
2023-05-10T11:29:52.050Z,3.08
2023-05-10T11:32:41.782Z,3.17
2023-05-10T11:35:29.289Z,2.70
2023-05-10T11:38:15.329Z,2.45
2023-05-10T11:41:00.915Z,3.00
2023-05-10T11:43:52.513Z,2.25
2023-05-10T11:46:37.933Z,2.15
2023-05-10T11:49:26.675Z,1.83
2023-05-10T11:52:14.753Z,1.77
2023-05-10T11:55:00.290Z,1.88
2023-05-10T11:57:47.081Z,2.13
2023-05-10T12:00:33.305Z,2.40
2023-05-10T12:03:18.987Z,1.83
2023-05-10T12:06:05.302Z,1.80
2023-05-10T12:08:54.714Z,2.10
2023-05-10T12:11:44.041Z,2.08
2023-05-10T12:14:34.315Z,2.00
2023-05-10T12:17:19.900Z,2.60
2023-05-10T12:20:16.358Z,2.45
2023-05-10T12:23:04.375Z,2.38
2023-05-10T12:25:49.866Z,2.10
2023-05-10T12:28:36.379Z,2.63
2023-05-10T12:31:22.372Z,2.05
2023-05-10T12:34:09.241Z,2.00
2023-05-10T12:36:55.641Z,2.20
2023-05-10T12:39:42.840Z,2.63
2023-05-10T12:42:28.306Z,1.60
2023-05-10T12:45:13.981Z,2.50
2023-05-10T12:47:59.184Z,2.40
2023-05-10T12:50:44.533Z,2.30
2023-05-10T12:53:30.389Z,1.67
2023-05-10T12:56:15.919Z,2.58
2023-05-10T12:59:01.552Z,2.47
2023-05-10T13:01:46.962Z,2.50
2023-05-10T13:04:32.617Z,2.33
2023-05-10T13:07:18.251Z,5.18
2023-05-10T13:10:03.830Z,2.83
2023-05-10T13:12:49.114Z,3.88
2023-05-10T13:15:34.753Z,2.35
2023-05-10T13:18:20.290Z,2.22
2023-05-10T13:21:06.442Z,2.80
2023-05-10T13:23:52.268Z,3.17
2023-05-10T13:26:38.262Z,3.00
2023-05-10T13:29:23.690Z,2.95
2023-05-10T13:32:09.564Z,2.17
2023-05-10T13:34:55.646Z,1.90
2023-05-10T13:37:41.000Z,1.95
2023-05-10T13:40:26.332Z,1.63
2023-05-10T13:43:11.900Z,1.73
2023-05-10T13:45:57.364Z,1.90
2023-05-10T13:48:43.000Z,1.83
2023-05-10T13:51:28.043Z,2.53
2023-05-10T13:54:13.713Z,2.40
2023-05-10T13:57:00.139Z,2.47
2023-05-10T13:59:45.923Z,2.53
2023-05-10T14:02:31.738Z,2.50
2023-05-10T14:05:18.921Z,2.60
2023-05-10T14:08:06.077Z,2.30
2023-05-10T14:10:53.224Z,2.53
2023-05-10T14:13:38.725Z,3.35
2023-05-10T14:16:24.325Z,2.38
2023-05-10T14:19:09.955Z,2.58
2023-05-10T14:21:55.433Z,2.80
2023-05-10T14:24:41.017Z,2.40
2023-05-10T14:27:26.508Z,3.00
2023-05-10T14:30:16.713Z,2.92
2023-05-10T14:33:03.964Z,4.35
2023-05-10T14:35:49.624Z,2.60
2023-05-10T14:38:35.223Z,2.63
2023-05-10T14:41:20.744Z,3.53
2023-05-10T14:44:06.206Z,1.40
2023-05-10T14:46:52.060Z,1.65
2023-05-10T14:49:38.324Z,1.48
2023-05-10T14:52:23.731Z,1.00
2023-05-10T14:55:09.948Z,0.95
2023-05-10T14:57:55.446Z,1.15
2023-05-10T15:00:41.821Z,1.30
2023-05-10T15:03:27.844Z,1.60
2023-05-10T15:06:16.029Z,0.70
2023-05-10T15:09:02.710Z,0.80
2023-05-10T15:11:48.419Z,0.90
2023-05-10T15:14:34.104Z,0.90
2023-05-10T15:17:19.714Z,1.10
2023-05-10T15:20:05.539Z,1.20
2023-05-10T15:22:51.250Z,1.00
2023-05-10T15:25:38.182Z,1.45
2023-05-10T15:28:23.723Z,2.33
2023-05-10T15:31:08.985Z,1.88
2023-05-10T15:34:01.652Z,1.60
2023-05-10T15:36:47.113Z,1.80
2023-05-10T15:39:34.145Z,1.70
2023-05-10T15:42:19.505Z,1.30
2023-05-10T15:45:05.774Z,1.70
2023-05-10T15:47:51.023Z,1.90
2023-05-10T15:50:36.662Z,1.77
2023-05-10T15:53:22.006Z,1.70
2023-05-10T15:56:07.785Z,1.80
2023-05-10T15:58:53.387Z,1.63
2023-05-10T16:01:38.928Z,1.15
2023-05-10T16:04:24.638Z,1.75
2023-05-10T16:07:10.267Z,1.42
2023-05-10T16:09:55.565Z,1.40
2023-05-10T16:12:41.755Z,1.73
2023-05-10T16:15:27.617Z,2.25
2023-05-10T16:18:13.313Z,2.10
2023-05-10T16:20:59.486Z,2.03
2023-05-10T16:23:46.781Z,1.40
2023-05-10T16:26:32.617Z,1.10
2023-05-10T16:29:18.081Z,1.50
2023-05-10T16:32:03.567Z,1.60
2023-05-10T16:34:50.207Z,2.08
2023-05-10T16:37:36.163Z,1.90
2023-05-10T16:40:21.919Z,1.80
2023-05-10T16:43:07.759Z,1.60
2023-05-10T16:45:53.354Z,1.80
2023-05-10T16:48:39.150Z,2.25
2023-05-10T16:51:24.422Z,2.40
2023-05-10T16:54:10.083Z,2.00
2023-05-10T16:56:55.759Z,2.10
2023-05-10T16:59:41.446Z,2.80
2023-05-10T17:02:27.134Z,1.92
2023-05-10T17:05:12.555Z,1.90
2023-05-10T17:07:58.124Z,1.73
2023-05-10T17:10:43.389Z,2.03
2023-05-10T17:13:29.162Z,2.05
2023-05-10T17:16:15.129Z,2.00
2023-05-10T17:19:01.242Z,2.08
2023-05-10T17:21:46.296Z,2.22
2023-05-10T17:24:32.987Z,2.17
2023-05-10T17:27:18.735Z,1.73
2023-05-10T17:30:04.749Z,2.45
2023-05-10T17:32:50.588Z,2.35
2023-05-10T17:35:36.396Z,1.88
2023-05-10T17:38:21.886Z,2.15
2023-05-10T17:41:07.460Z,2.08
2023-05-10T17:43:53.984Z,2.47
2023-05-10T17:46:39.597Z,1.73
2023-05-10T17:49:25.150Z,1.70
2023-05-10T17:52:10.564Z,2.33
2023-05-10T17:54:56.018Z,2.25
2023-05-10T17:57:41.570Z,1.88
2023-05-10T18:00:27.417Z,2.17
2023-05-10T18:03:12.850Z,2.20
2023-05-10T18:05:58.439Z,2.60
2023-05-10T18:08:44.611Z,2.53
2023-05-10T18:11:30.151Z,2.13
2023-05-10T18:14:20.538Z,2.17
2023-05-10T18:17:14.060Z,2.35
2023-05-10T18:19:59.797Z,2.83
2023-05-10T18:22:45.082Z,2.50
2023-05-10T18:25:30.551Z,2.08
2023-05-10T18:28:15.748Z,2.20
2023-05-10T18:31:01.468Z,2.20
2023-05-10T18:33:46.983Z,2.08
2023-05-10T18:36:33.243Z,2.05
2023-05-10T18:39:18.561Z,2.22
2023-05-10T18:42:08.517Z,2.03
2023-05-10T18:44:54.850Z,2.53
2023-05-10T18:47:40.239Z,2.33
2023-05-10T18:50:27.914Z,1.85
2023-05-10T18:53:14.174Z,2.10
2023-05-10T18:56:00.418Z,2.47
2023-05-10T18:58:46.095Z,2.20
2023-05-10T19:01:34.416Z,2.05
2023-05-10T19:04:20.097Z,2.10
2023-05-10T19:07:05.631Z,1.92
2023-05-10T19:09:51.114Z,1.92
2023-05-10T19:12:37.489Z,1.98
2023-05-10T19:15:23.144Z,2.40
2023-05-10T19:18:09.586Z,1.90
2023-05-10T19:20:56.507Z,2.38
2023-05-10T19:23:43.061Z,2.20
2023-05-10T19:26:28.644Z,2.40
2023-05-10T19:29:13.970Z,2.55
2023-05-10T19:32:00.818Z,2.30
2023-05-10T19:34:46.575Z,4.05
2023-05-10T19:37:31.931Z,2.63
2023-05-10T19:40:18.436Z,3.35
2023-05-10T19:43:04.284Z,2.60
2023-05-10T19:45:49.847Z,2.25
2023-05-10T19:48:35.572Z,2.60
2023-05-10T19:51:21.155Z,2.55
2023-05-10T19:54:07.194Z,3.05
2023-05-10T19:56:52.538Z,2.78
2023-05-10T19:59:38.312Z,3.28
2023-05-10T20:02:23.662Z,2.60
2023-05-10T20:05:09.497Z,2.72
2023-05-10T20:07:55.494Z,3.78
2023-05-10T20:10:41.379Z,3.50
2023-05-10T20:13:27.146Z,3.38
2023-05-10T20:16:13.027Z,2.78
2023-05-10T20:18:58.793Z,3.22
2023-05-10T20:21:44.248Z,3.35
2023-05-10T20:24:29.761Z,2.10
2023-05-10T20:27:15.306Z,1.10
2023-05-10T20:30:00.993Z,1.42
2023-05-10T20:32:46.273Z,2.20
2023-05-10T20:35:32.981Z,1.30
2023-05-10T20:38:18.854Z,1.00
2023-05-10T20:41:04.095Z,1.35
2023-05-10T20:43:49.556Z,1.05
2023-05-10T20:46:35.170Z,1.60
2023-05-10T20:49:20.601Z,1.33
2023-05-10T20:52:06.098Z,1.75
2023-05-10T20:54:51.666Z,1.50
2023-05-10T20:57:37.389Z,1.40
2023-05-10T21:00:22.916Z,1.50
2023-05-10T21:03:08.553Z,1.60
2023-05-10T21:05:54.066Z,2.63
2023-05-10T21:08:39.694Z,2.22
2023-05-10T21:11:25.110Z,1.85
2023-05-10T21:14:10.721Z,1.80
2023-05-10T21:16:56.093Z,2.35
2023-05-10T21:19:41.275Z,2.50
2023-05-10T21:22:26.939Z,2.40
2023-05-10T21:25:12.412Z,2.28
2023-05-10T21:27:58.214Z,2.70
2023-05-10T21:30:43.639Z,3.50
2023-05-10T21:33:29.131Z,2.60
2023-05-10T21:36:14.874Z,2.63
2023-05-10T21:39:00.731Z,2.63
2023-05-10T21:41:46.257Z,3.40
2023-05-10T21:44:32.196Z,3.47
2023-05-10T21:47:17.988Z,3.28
2023-05-10T21:50:03.691Z,3.35
2023-05-10T21:52:49.191Z,2.92
2023-05-10T21:55:34.787Z,2.53
2023-05-10T21:58:20.568Z,3.13
2023-05-10T22:01:06.162Z,2.75
2023-05-10T22:03:51.832Z,3.30
2023-05-10T22:06:37.321Z,3.22
2023-05-10T22:09:24.376Z,4.70
2023-05-10T22:12:09.840Z,3.33
2023-05-10T22:15:09.418Z,2.95
2023-05-10T22:17:56.223Z,4.93
2023-05-10T22:20:45.269Z,5.85
2023-05-10T22:23:30.803Z,6.57
2023-05-10T22:26:16.481Z,5.95
2023-05-10T22:29:03.113Z,7.10
2023-05-10T22:31:48.334Z,4.53
2023-05-10T22:34:34.219Z,4.53
2023-05-10T22:37:19.640Z,4.25
2023-05-10T22:40:05.956Z,3.63
2023-05-10T22:42:51.930Z,3.47
2023-05-10T22:45:37.792Z,3.75
2023-05-10T22:48:23.356Z,3.75
2023-05-10T22:51:09.365Z,3.92
2023-05-10T22:53:54.864Z,3.58
2023-05-10T22:56:40.513Z,3.28
2023-05-10T22:59:28.563Z,3.22
2023-05-10T23:02:15.089Z,2.97
2023-05-10T23:05:00.732Z,2.85
2023-05-10T23:07:48.527Z,2.30
2023-05-10T23:10:33.906Z,1.70
2023-05-10T23:13:21.026Z,1.60
2023-05-10T23:16:06.722Z,1.35
2023-05-10T23:18:52.199Z,2.67
2023-05-10T23:21:37.960Z,1.30
2023-05-10T23:24:23.192Z,1.33
2023-05-10T23:27:08.697Z,1.70
2023-05-10T23:29:55.920Z,1.30
2023-05-10T23:32:41.192Z,1.10
2023-05-10T23:35:26.740Z,1.20
2023-05-10T23:38:12.338Z,1.45
2023-05-10T23:40:57.610Z,1.40
2023-05-10T23:43:42.774Z,1.20
2023-05-10T23:46:28.855Z,1.23
2023-05-10T23:49:14.492Z,1.17
2023-05-10T23:51:59.953Z,2.38
2023-05-10T23:54:46.023Z,1.40
2023-05-10T23:57:31.647Z,1.60
